Time;durP1;ratioP1;P1;durP2;ratioP2;P2;SDS_P1;SDS_P2;PMS_P1;PMS_P2;Temp;Humidity;BMP_temperature;BMP_pressure;BME280_temperature;BME280_humidity;BME280_pressure;Samples;Min_cycle;Max_cycle;Signal;HPM_P1;HPM_P2
2023/03/22 00:01:15;;;;;;;9.95;3.78;;;;;;;9.84;89.79;100927.41;5073879;28;20079;-84
2023/03/22 00:03:41;;;;;;;14.00;3.50;;;;;;;9.86;89.71;100928.31;5055614;28;20033;-84
2023/03/22 00:06:07;;;;;;;7.28;3.08;;;;;;;9.81;89.69;100918.53;5055450;28;20020;-84
2023/03/22 00:08:33;;;;;;;8.45;3.40;;;;;;;9.78;89.41;100922.94;5055412;28;20021;-84
2023/03/22 00:10:59;;;;;;;9.50;3.00;;;;;;;9.60;89.44;100887.47;5073275;28;20041;-85
2023/03/22 00:13:25;;;;;;;6.75;3.38;;;;;;;9.74;89.53;100926.38;5055400;28;20443;-85
2023/03/22 00:15:50;;;;;;;9.77;3.60;;;;;;;9.73;89.71;100918.44;5038698;28;20032;-85
2023/03/22 00:18:17;;;;;;;9.18;4.07;;;;;;;9.60;89.89;100900.66;5076282;28;20367;-85
2023/03/22 00:20:51;;;;;;;8.32;3.45;;;;;;;9.72;89.96;100911.38;5079881;28;20024;-85
2023/03/22 00:23:16;;;;;;;8.23;3.50;;;;;;;9.72;89.96;100895.53;5080233;28;20034;-85
2023/03/22 00:25:44;;;;;;;7.68;3.50;;;;;;;9.59;90.07;100878.63;5079902;28;20115;-85
2023/03/22 00:28:09;;;;;;;7.45;3.30;;;;;;;9.73;90.11;100897.34;5062160;28;20086;-85
2023/03/22 00:30:35;;;;;;;8.57;3.63;;;;;;;9.70;90.01;100899.94;5080069;28;20360;-84
2023/03/22 00:33:00;;;;;;;10.27;3.70;;;;;;;9.68;90.13;100889.34;5061971;28;20028;-85
2023/03/22 00:35:26;;;;;;;9.15;3.38;;;;;;;9.68;90.29;100886.72;5061941;28;20029;-85
2023/03/22 00:37:51;;;;;;;10.55;3.45;;;;;;;9.66;90.80;100880.53;5061954;28;20031;-86
2023/03/22 00:40:17;;;;;;;12.43;3.80;;;;;;;9.66;91.20;100883.16;5045361;28;20032;-85
2023/03/22 00:42:42;;;;;;;9.82;3.60;;;;;;;9.66;90.98;100879.63;5061902;28;20055;-85
2023/03/22 00:45:10;;;;;;;12.07;3.90;;;;;;;9.56;90.95;100854.88;5061879;28;20376;-85
2023/03/22 00:47:35;;;;;;;11.18;4.50;;;;;;;9.37;91.25;100819.41;5079287;28;20107;-85
2023/03/22 00:50:01;;;;;;;10.52;3.85;;;;;;;9.66;91.27;100869.09;5079705;28;20400;-85
2023/03/22 00:52:27;;;;;;;9.10;4.30;;;;;;;9.59;91.33;100851.38;5079673;28;20020;-85
2023/03/22 00:54:53;;;;;;;9.75;4.28;;;;;;;9.42;91.61;100823.03;5079513;28;20134;-85
2023/03/22 00:57:19;;;;;;;9.88;4.38;;;;;;;9.52;92.33;100840.75;5079456;28;20025;-85
2023/03/22 00:59:44;;;;;;;7.95;4.30;;;;;;;9.60;91.85;100850.53;5061601;28;20455;-85
2023/03/22 01:02:14;;;;;;;12.52;4.80;;;;;;;9.50;92.50;100836.31;5045011;28;20384;-85
2023/03/22 01:04:45;;;;;;;10.00;4.63;;;;;;;9.61;92.75;100844.38;5061597;28;20440;-85
2023/03/22 01:07:20;;;;;;;11.45;4.53;;;;;;;9.61;92.92;100837.34;5079851;28;20033;-85
2023/03/22 01:09:46;;;;;;;11.02;4.65;;;;;;;9.63;93.17;100850.56;5079564;28;20024;-85
2023/03/22 01:12:12;;;;;;;8.85;4.75;;;;;;;9.65;93.61;100836.53;5079337;28;20048;-85
2023/03/22 01:14:38;;;;;;;9.05;4.78;;;;;;;9.54;93.65;100822.28;5079574;28;20090;-85
2023/03/22 01:17:04;;;;;;;12.02;5.00;;;;;;;9.62;94.40;100838.25;5079226;28;20534;-85
2023/03/22 01:19:29;;;;;;;9.95;5.00;;;;;;;9.61;94.88;100833.84;5079256;28;20500;-85
2023/03/22 01:21:56;;;;;;;11.55;5.25;;;;;;;9.61;94.93;100823.28;5079422;28;20077;-85
2023/03/22 01:24:22;;;;;;;11.52;5.32;;;;;;;9.62;95.51;100811.84;5079489;28;20032;-85
2023/03/22 01:26:47;;;;;;;15.93;6.28;;;;;;;9.58;96.41;100799.50;5079371;28;20120;-85
2023/03/22 01:29:12;;;;;;;12.20;6.88;;;;;;;9.57;97.14;100798.59;5059776;28;20117;-85
2023/03/22 01:31:38;;;;;;;13.98;7.03;;;;;;;9.70;97.39;100805.81;5075915;28;20457;-85
2023/03/22 01:34:04;;;;;;;14.65;6.63;;;;;;;9.76;97.25;100784.81;5058279;28;20036;-85
2023/03/22 01:36:29;;;;;;;13.90;6.53;;;;;;;9.78;97.58;100779.53;5076104;28;20032;-85
2023/03/22 01:38:55;;;;;;;14.63;7.47;;;;;;;9.70;97.28;100760.09;5076034;28;20043;-85
2023/03/22 01:41:20;;;;;;;12.32;6.75;;;;;;;9.82;97.31;100776.06;5058071;28;20032;-85
2023/03/22 01:44:06;;;;;;;12.43;7.30;;;;;;;9.85;98.02;100769.94;5075951;28;20062;-85
2023/03/22 01:46:32;;;;;;;12.23;7.07;;;;;;;9.88;97.93;100759.41;5058200;28;20094;-85
2023/03/22 01:48:59;;;;;;;14.55;7.80;;;;;;;9.92;98.06;100756.84;5076043;28;20116;-85
2023/03/22 01:51:24;;;;;;;13.00;8.38;;;;;;;9.89;98.50;100751.53;5075664;28;20033;-85
2023/03/22 01:53:59;;;;;;;16.35;7.53;;;;;;;10.00;98.00;100747.25;5057829;28;20028;-85
2023/03/22 01:56:28;;;;;;;12.43;8.10;;;;;;;9.92;98.34;100727.81;5075622;28;20103;-85
2023/03/22 01:58:55;;;;;;;14.38;8.60;;;;;;;9.83;98.74;100703.94;5075420;28;20028;-85
2023/03/22 02:01:22;;;;;;;14.35;8.32;;;;;;;9.98;98.73;100732.28;5075610;28;20039;-85
2023/03/22 02:03:54;;;;;;;14.35;8.27;;;;;;;10.00;98.42;100734.06;5075888;28;20028;-85
2023/03/22 02:06:20;;;;;;;14.60;8.00;;;;;;;10.08;98.72;100735.91;5057705;28;20078;-85
2023/03/22 02:08:45;;;;;;;13.05;8.25;;;;;;;10.06;98.96;100729.72;5057627;28;20020;-85
2023/03/22 02:11:28;;;;;;;16.85;8.90;;;;;;;9.90;98.48;100704.91;5075302;28;20032;-85
2023/03/22 02:14:05;;;;;;;15.25;8.60;;;;;;;10.07;98.60;100720.94;5075543;28;20028;-85
2023/03/22 02:16:47;;;;;;;14.60;8.73;;;;;;;10.04;99.02;100709.47;5057272;28;20028;-85
2023/03/22 02:19:28;;;;;;;14.93;8.85;;;;;;;10.06;99.24;100716.50;5075139;28;20464;-84
2023/03/22 02:22:37;;;;;;;14.02;8.57;;;;;;;10.08;98.75;100709.50;5075335;28;20518;-84
2023/03/22 02:25:33;;;;;;;13.70;7.75;;;;;;;10.09;98.87;100729.75;5075125;28;20098;-85
2023/03/22 02:28:30;;;;;;;15.35;8.48;;;;;;;10.10;98.45;100713.91;5057197;28;20035;-84
2023/03/22 02:31:23;;;;;;;16.33;8.43;;;;;;;10.05;98.39;100702.44;5057008;28;20563;-85
2023/03/22 02:34:16;;;;;;;13.35;7.85;;;;;;;10.08;98.50;100709.50;5075110;28;20059;-85
2023/03/22 02:37:05;;;;;;;11.50;7.95;;;;;;;10.05;98.60;100705.06;5056992;28;20040;-85
2023/03/22 02:39:34;;;;;;;11.65;7.15;;;;;;;10.02;98.56;100694.47;5061136;28;20036;-85
2023/03/22 02:42:39;;;;;;;12.50;7.32;;;;;;;10.08;98.50;100707.75;5056748;28;20032;-85
2023/03/22 02:45:42;;;;;;;11.95;7.25;;;;;;;10.10;98.65;100708.63;5074510;28;20032;-85
2023/03/22 02:48:30;;;;;;;12.88;7.55;;;;;;;10.04;98.33;100704.19;5074236;28;20020;-85
2023/03/22 02:51:06;;;;;;;12.45;5.97;;;;;;;9.98;98.02;100680.38;5074725;28;20047;-85
2023/03/22 02:54:05;;;;;;;16.58;6.97;;;;;;;10.11;98.07;100707.78;5074474;28;20424;-85
2023/03/22 02:56:38;;;;;;;14.10;6.95;;;;;;;10.03;97.97;100686.59;5055370;28;20044;-85
2023/03/22 02:59:06;;;;;;;10.52;6.68;;;;;;;10.03;97.99;100685.69;5074608;28;20024;-85
2023/03/22 03:01:42;;;;;;;10.07;7.13;;;;;;;10.08;97.58;100675.19;5074411;28;20024;-85
2023/03/22 03:04:14;;;;;;;13.35;6.55;;;;;;;10.07;97.50;100681.34;5056504;28;20020;-85
2023/03/22 03:06:46;;;;;;;11.77;6.93;;;;;;;10.13;97.33;100684.03;5074212;28;20368;-85
2023/03/22 03:09:16;;;;;;;13.13;6.72;;;;;;;10.00;97.15;100668.06;5074357;28;20445;-86
2023/03/22 03:11:46;;;;;;;13.02;6.20;;;;;;;9.84;97.18;100641.50;5074027;28;20051;-85
2023/03/22 03:14:26;;;;;;;10.05;6.05;;;;;;;10.05;97.23;100686.59;5074338;28;20056;-86
2023/03/22 03:17:33;;;;;;;11.35;5.72;;;;;;;10.05;97.05;100686.59;5074149;28;20117;-85
2023/03/22 03:20:02;;;;;;;10.32;5.80;;;;;;;10.04;96.92;100682.19;5055297;28;20353;-86
2023/03/22 03:22:51;;;;;;;8.63;5.30;;;;;;;10.03;97.20;100676.03;5074059;28;20028;-85
2023/03/22 03:25:17;;;;;;;10.15;6.25;;;;;;;10.04;96.87;100679.53;5056177;28;20025;-85
2023/03/22 03:28:08;;;;;;;9.90;5.65;;;;;;;10.04;96.53;100683.06;5074013;28;20024;-86
2023/03/22 03:30:43;;;;;;;10.80;5.80;;;;;;;9.85;96.76;100636.25;5073938;28;20039;-85
2023/03/22 03:33:15;;;;;;;10.18;5.57;;;;;;;9.95;96.55;100660.97;5056159;28;20021;-87
2023/03/22 03:35:49;;;;;;;10.23;5.10;;;;;;;9.91;96.80;100657.41;5055946;28;20123;-85
2023/03/22 03:38:19;;;;;;;8.93;5.18;;;;;;;9.93;96.50;100655.66;5073884;28;20025;-85
2023/03/22 03:40:57;;;;;;;13.50;5.40;;;;;;;9.98;96.70;100672.47;5074220;28;20020;-85
2023/03/22 03:43:24;;;;;;;9.25;5.32;;;;;;;10.00;96.17;100670.69;5074075;28;20488;-85
2023/03/22 03:45:51;;;;;;;10.80;5.03;;;;;;;9.92;95.85;100650.38;5055715;28;20025;-84
2023/03/22 03:48:29;;;;;;;9.18;5.05;;;;;;;9.97;95.99;100668.03;5073201;28;20441;-85
2023/03/22 03:50:56;;;;;;;9.20;5.22;;;;;;;9.88;95.83;100661.78;5073710;28;20024;-85
2023/03/22 03:53:22;;;;;;;8.68;5.10;;;;;;;9.82;95.51;100643.25;5072946;28;20479;-85
2023/03/22 03:55:48;;;;;;;9.25;5.00;;;;;;;9.87;95.78;100655.63;5073577;28;20025;-85
2023/03/22 03:58:15;;;;;;;8.70;4.72;;;;;;;9.76;95.64;100639.69;5073538;28;20391;-85
2023/03/22 04:00:41;;;;;;;6.88;4.38;;;;;;;9.89;95.50;100667.09;5073414;28;20036;-85
2023/03/22 04:03:07;;;;;;;8.52;4.60;;;;;;;9.78;95.70;100651.13;5073585;28;20021;-85
2023/03/22 04:05:32;;;;;;;9.70;4.95;;;;;;;9.90;95.39;100679.41;5055659;28;20034;-84
2023/03/22 04:07:58;;;;;;;8.60;4.75;;;;;;;9.87;95.49;100682.00;5073669;28;20020;-85
2023/03/22 04:10:23;;;;;;;10.18;4.80;;;;;;;9.73;95.36;100660.75;5055385;28;20518;-84
2023/03/22 04:12:48;;;;;;;12.25;4.78;;;;;;;9.80;95.51;100674.88;5038619;28;20127;-84
2023/03/22 04:15:14;;;;;;;9.38;4.72;;;;;;;9.61;95.49;100638.63;5055346;28;20032;-84
2023/03/22 04:17:40;;;;;;;8.38;4.20;;;;;;;9.75;95.67;100677.47;5073217;28;20104;-84
2023/03/22 04:20:08;;;;;;;9.07;4.90;;;;;;;9.67;95.73;100651.88;5073322;28;20456;-84
2023/03/22 04:22:33;;;;;;;9.60;4.70;;;;;;;9.70;96.12;100665.09;5055479;28;20032;-85
2023/03/22 04:25:00;;;;;;;12.65;4.60;;;;;;;9.68;95.83;100661.56;5073274;28;20036;-85
2023/03/22 04:27:26;;;;;;;9.25;4.85;;;;;;;9.54;95.71;100633.25;5055272;28;20032;-85
2023/03/22 04:29:53;;;;;;;8.02;4.45;;;;;;;9.57;96.17;100650.88;5055359;28;20029;-85
2023/03/22 04:32:21;;;;;;;11.55;4.72;;;;;;;9.50;96.16;100635.84;5038759;28;20032;-85
2023/03/22 04:34:51;;;;;;;9.40;4.22;;;;;;;9.51;95.69;100632.38;5073118;28;20028;-85
2023/03/22 04:37:17;;;;;;;8.85;4.32;;;;;;;9.49;95.98;100634.09;5055918;28;20032;-85
2023/03/22 04:39:43;;;;;;;9.10;3.92;;;;;;;9.50;96.19;100635.84;5055286;28;20064;-85
2023/03/22 04:42:09;;;;;;;13.32;4.43;;;;;;;9.45;96.25;100627.00;5073151;28;20029;-85
2023/03/22 04:44:34;;;;;;;10.25;4.45;;;;;;;9.61;95.70;100650.06;5073115;28;20372;-85
2023/03/22 04:47:00;;;;;;;12.13;4.65;;;;;;;9.61;95.92;100655.34;5073023;28;20047;-85
2023/03/22 04:49:26;;;;;;;9.45;4.45;;;;;;;9.61;95.89;100641.25;5072536;28;20457;-85
2023/03/22 04:51:53;;;;;;;14.88;4.25;;;;;;;9.51;95.94;100633.25;5073129;28;20129;-85
2023/03/22 04:54:19;;;;;;;10.55;4.90;;;;;;;9.51;96.16;100642.91;5072919;28;20060;-85
2023/03/22 04:56:44;;;;;;;11.25;4.15;;;;;;;9.45;96.20;100635.78;5073041;28;20068;-86
2023/03/22 04:59:10;;;;;;;9.57;4.47;;;;;;;9.54;96.04;100649.09;5055197;28;20028;-86
2023/03/22 05:01:36;;;;;;;8.85;4.22;;;;;;;9.53;96.21;100649.97;5072533;28;20476;-86
2023/03/22 05:04:02;;;;;;;9.63;3.75;;;;;;;9.43;96.13;100626.09;5055167;28;20056;-85
2023/03/22 05:06:31;;;;;;;7.53;4.20;;;;;;;9.51;95.95;100638.53;5058102;28;20024;-86
2023/03/22 05:08:57;;;;;;;11.32;4.18;;;;;;;9.53;95.98;100646.44;5076541;28;20025;-86
2023/03/22 05:11:26;;;;;;;11.32;4.07;;;;;;;9.49;96.32;100634.97;5041769;28;20051;-86
2023/03/22 05:13:55;;;;;;;8.18;4.00;;;;;;;9.48;96.05;100630.56;5076382;28;20045;-87
2023/03/22 05:16:21;;;;;;;11.10;3.92;;;;;;;9.47;95.64;100617.38;5059067;28;20044;-85
2023/03/22 05:18:47;;;;;;;8.57;3.97;;;;;;;9.59;95.81;100641.22;5076259;28;20027;-86
2023/03/22 05:21:14;;;;;;;11.93;4.00;;;;;;;9.39;95.81;100606.72;5041932;28;20355;-85
2023/03/22 05:23:41;;;;;;;11.63;3.92;;;;;;;9.44;95.49;100622.59;5076325;28;20025;-85
2023/03/22 05:26:07;;;;;;;9.65;4.18;;;;;;;9.56;95.53;100629.78;5058279;28;20086;-85
2023/03/22 05:28:34;;;;;;;9.38;3.83;;;;;;;9.49;95.46;100624.41;5058371;28;20464;-85
2023/03/22 05:31:00;;;;;;;10.45;4.07;;;;;;;9.46;95.62;100616.50;5076374;28;20027;-85
2023/03/22 05:33:26;;;;;;;8.63;3.75;;;;;;;9.44;94.56;100609.41;5075811;28;20032;-85
2023/03/22 05:35:52;;;;;;;18.95;4.13;;;;;;;9.48;94.59;100624.41;5076359;28;20028;-85
2023/03/22 05:38:18;;;;;;;22.40;5.25;;;;;;;9.50;94.48;100631.44;5076195;28;20368;-85
2023/03/22 05:40:44;;;;;;;10.25;3.70;;;;;;;9.53;94.66;100626.22;5076252;28;20026;-85
2023/03/22 05:43:10;;;;;;;8.98;3.40;;;;;;;9.41;94.54;100612.00;5057867;28;20474;-85
2023/03/22 05:45:36;;;;;;;10.77;3.40;;;;;;;9.44;94.00;100607.66;5075146;28;20028;-85
2023/03/22 05:48:02;;;;;;;11.70;3.33;;;;;;;9.52;94.09;100624.47;5057793;28;20158;-85
2023/03/22 05:50:27;;;;;;;9.50;3.50;;;;;;;9.58;94.00;100633.28;5056936;28;20352;-85
2023/03/22 05:52:53;;;;;;;10.70;3.53;;;;;;;9.46;93.67;100615.56;5075617;28;20035;-86
2023/03/22 05:55:19;;;;;;;9.57;3.53;;;;;;;9.57;93.87;100642.09;5075186;28;20020;-85
2023/03/22 05:57:45;;;;;;;11.80;3.70;;;;;;;9.59;93.32;100635.94;5074953;28;20477;-85
2023/03/22 06:00:15;;;;;;;10.70;3.20;;;;;;;9.49;93.43;100619.13;5075085;28;20040;-86
2023/03/22 06:02:44;;;;;;;10.88;3.15;;;;;;;9.62;93.01;100636.00;5056827;28;20016;-85
2023/03/22 06:05:11;;;;;;;8.32;3.83;;;;;;;9.49;93.47;100626.16;5075761;28;20050;-85
2023/03/22 06:07:37;;;;;;;7.93;3.17;;;;;;;9.59;93.16;100642.97;5074884;28;20028;-85
2023/03/22 06:10:04;;;;;;;9.20;3.30;;;;;;;9.55;93.04;100626.25;5057000;28;20024;-86
2023/03/22 06:12:30;;;;;;;10.10;3.33;;;;;;;9.59;92.83;100633.31;5074459;28;20115;-85
2023/03/22 06:14:55;;;;;;;9.60;2.90;;;;;;;9.56;92.83;100612.19;5074725;28;20128;-85
2023/03/22 06:17:21;;;;;;;9.23;3.40;;;;;;;9.61;92.89;100618.41;5074990;28;20025;-86
2023/03/22 06:19:46;;;;;;;5.75;3.30;;;;;;;9.69;92.23;100629.03;5039819;28;20028;-85
2023/03/22 06:22:12;;;;;;;7.43;3.20;;;;;;;9.58;92.33;100599.88;5056841;28;20460;-85
2023/03/22 06:24:39;;;;;;;10.85;3.38;;;;;;;9.66;92.31;100615.81;5056728;28;20322;-86
2023/03/22 06:27:05;;;;;;;9.48;3.65;;;;;;;9.73;92.56;100634.38;5057057;28;20028;-86
2023/03/22 06:29:31;;;;;;;12.70;3.40;;;;;;;9.73;91.95;100628.22;5056502;28;20437;-86
2023/03/22 06:31:56;;;;;;;12.00;3.65;;;;;;;9.78;91.81;100630.00;5074481;28;20104;-85
2023/03/22 06:34:21;;;;;;;11.93;3.70;;;;;;;9.72;91.82;100608.84;5056188;28;20104;-85
2023/03/22 06:36:47;;;;;;;8.73;3.33;;;;;;;9.86;91.65;100621.31;5023234;28;20067;-85
2023/03/22 06:39:12;;;;;;;11.02;3.63;;;;;;;9.86;90.99;100616.91;5056388;28;20487;-86
2023/03/22 06:41:38;;;;;;;7.40;3.40;;;;;;;9.95;91.54;100627.53;5056278;28;20107;-85
2023/03/22 06:44:03;;;;;;;10.93;3.67;;;;;;;9.96;91.49;100626.66;5074520;28;20029;-86
2023/03/22 06:46:28;;;;;;;11.80;3.80;;;;;;;9.89;91.57;100622.22;5056096;28;20123;-85
2023/03/22 06:48:54;;;;;;;10.20;3.95;;;;;;;10.01;91.12;100638.16;5056448;28;20032;-86
2023/03/22 06:51:19;;;;;;;13.00;3.92;;;;;;;9.95;90.95;100637.22;5041928;28;20478;-85
2023/03/22 06:53:45;;;;;;;10.65;3.40;;;;;;;9.92;90.85;100616.94;5078103;28;20025;-85
2023/03/22 06:56:10;;;;;;;10.60;3.72;;;;;;;9.98;91.24;100635.50;5057533;28;20036;-86
2023/03/22 06:58:36;;;;;;;9.23;3.50;;;;;;;10.08;91.44;100640.88;5075925;28;20068;-86
2023/03/22 07:01:01;;;;;;;11.55;3.80;;;;;;;9.95;91.46;100614.34;5055892;28;20101;-86
2023/03/22 07:03:27;;;;;;;9.40;3.80;;;;;;;10.06;90.92;100619.72;5074206;28;20104;-86
2023/03/22 07:06:01;;;;;;;8.35;3.70;;;;;;;10.13;90.88;100615.38;5074111;28;20115;-86
2023/03/22 07:08:27;;;;;;;7.57;3.40;;;;;;;10.32;90.66;100635.84;5073870;28;20024;-86
2023/03/22 07:10:52;;;;;;;10.57;3.58;;;;;;;10.28;90.01;100612.91;5074017;28;20443;-86
2023/03/22 07:13:17;;;;;;;8.75;4.13;;;;;;;10.40;90.13;100630.59;5056301;28;20056;-86
2023/03/22 07:15:43;;;;;;;7.68;3.50;;;;;;;10.31;89.23;100601.47;5073336;28;20102;-87
2023/03/22 07:18:08;;;;;;;11.80;4.28;;;;;;;10.34;89.20;100620.88;5055412;28;20059;-86
2023/03/22 07:20:37;;;;;;;11.18;4.13;;;;;;;10.37;89.64;100634.13;5073342;28;20467;-86
2023/03/22 07:23:03;;;;;;;13.75;4.10;;;;;;;10.40;88.90;100626.19;5056210;28;20111;-86
2023/03/22 07:25:28;;;;;;;11.15;4.60;;;;;;;10.43;87.83;100623.59;5073217;28;20024;-86
2023/03/22 07:27:54;;;;;;;10.73;4.30;;;;;;;10.45;88.81;100632.44;5072517;28;20464;-86
2023/03/22 07:30:19;;;;;;;11.98;4.47;;;;;;;10.24;88.13;100589.97;5073975;28;20097;-86
2023/03/22 07:32:45;;;;;;;13.30;4.75;;;;;;;10.52;87.67;100641.28;5055323;28;20055;-86
2023/03/22 07:35:10;;;;;;;9.05;4.38;;;;;;;10.56;87.61;100640.41;5059093;28;20153;-87
2023/03/22 07:37:35;;;;;;;10.93;4.78;;;;;;;10.52;86.90;100613.09;5053283;28;20128;-87
2023/03/22 07:40:03;;;;;;;12.65;4.50;;;;;;;10.60;86.86;100630.75;5053477;28;20029;-86
2023/03/22 07:42:30;;;;;;;12.40;4.28;;;;;;;10.52;86.65;100620.13;5036515;28;20029;-86
2023/03/22 07:44:55;;;;;;;9.35;4.20;;;;;;;10.68;86.70;100637.88;5053164;28;20033;-86
2023/03/22 07:47:20;;;;;;;11.60;4.50;;;;;;;10.80;86.42;100647.66;5035293;28;20036;-86
2023/03/22 07:49:46;;;;;;;8.50;4.13;;;;;;;10.83;85.74;100666.16;5035045;28;20398;-86
2023/03/22 07:52:11;;;;;;;12.07;4.45;;;;;;;10.86;85.20;100655.59;5018826;28;20055;-86
2023/03/22 07:54:37;;;;;;;12.65;4.28;;;;;;;10.91;84.40;100634.47;5052929;28;20469;-87
2023/03/22 07:57:03;;;;;;;12.32;4.00;;;;;;;10.97;84.48;100639.81;5053063;28;20033;-86
2023/03/22 07:59:28;;;;;;;10.30;4.28;;;;;;;11.06;84.26;100671.59;5052698;28;20021;-86
2023/03/22 08:01:54;;;;;;;11.07;4.05;;;;;;;11.11;83.31;100646.06;5052709;28;20368;-86
2023/03/22 08:04:21;;;;;;;7.80;3.30;;;;;;;11.15;82.95;100645.19;5035163;28;20025;-86
2023/03/22 08:06:47;;;;;;;8.80;3.50;;;;;;;11.16;82.63;100644.31;5019333;28;20037;-86
2023/03/22 08:09:13;;;;;;;10.75;3.45;;;;;;;11.19;82.30;100651.41;5052904;28;20039;-87
2023/03/22 08:11:38;;;;;;;8.00;3.00;;;;;;;10.81;82.03;100585.97;5035015;28;20529;-86
2023/03/22 08:14:04;;;;;;;11.43;3.80;;;;;;;11.18;81.48;100655.81;5052622;28;20095;-87
2023/03/22 08:16:29;;;;;;;6.13;2.60;;;;;;;11.21;81.76;100661.09;5052596;28;20035;-86
2023/03/22 08:18:55;;;;;;;10.63;3.20;;;;;;;11.22;81.05;100648.75;5018590;28;20449;-87
2023/03/22 08:21:20;;;;;;;11.13;3.33;;;;;;;11.23;79.92;100650.53;5052948;28;20040;-86
2023/03/22 08:23:46;;;;;;;9.90;3.20;;;;;;;11.36;79.94;100664.72;5034803;28;20112;-87
2023/03/22 08:26:11;;;;;;;11.88;2.75;;;;;;;11.44;79.63;100663.88;5052375;28;20029;-84
2023/03/22 08:28:37;;;;;;;10.85;2.90;;;;;;;11.40;79.15;100650.63;5052567;28;20128;-86
2023/03/22 08:31:09;;;;;;;10.52;3.00;;;;;;;11.49;80.05;100654.19;5034525;28;20158;-86
2023/03/22 08:33:35;;;;;;;11.55;3.00;;;;;;;11.52;79.34;100640.97;5034771;28;20036;-86
2023/03/22 08:36:05;;;;;;;12.25;3.05;;;;;;;11.76;78.64;100666.59;5018332;28;20171;-87
2023/03/22 08:38:31;;;;;;;8.27;2.90;;;;;;;11.73;77.34;100650.75;5034848;28;20033;-87
2023/03/22 08:40:56;;;;;;;10.23;2.70;;;;;;;11.93;77.14;100642.84;5056583;28;20168;-87
2023/03/22 08:43:25;;;;;;;9.23;2.60;;;;;;;11.79;77.13;100607.50;5056710;28;20025;-87
2023/03/22 08:45:50;;;;;;;11.13;3.38;;;;;;;11.99;77.04;100647.28;5057260;28;20469;-85
2023/03/22 08:48:15;;;;;;;9.15;2.75;;;;;;;11.63;77.48;100572.16;5056133;28;20106;-87
2023/03/22 08:50:41;;;;;;;11.85;3.13;;;;;;;11.97;76.66;100628.75;5056188;28;20025;-86
2023/03/22 08:53:06;;;;;;;8.23;2.80;;;;;;;11.97;76.43;100627.88;5038596;28;20060;-85
2023/03/22 08:55:34;;;;;;;10.80;2.70;;;;;;;12.05;76.12;100627.88;5038199;28;20025;-85
2023/03/22 08:58:00;;;;;;;9.73;2.90;;;;;;;12.14;75.28;100646.44;5056327;28;20033;-84
2023/03/22 09:00:27;;;;;;;8.77;2.70;;;;;;;12.05;75.70;100635.81;5056197;28;20032;-84
2023/03/22 09:02:53;;;;;;;9.15;2.70;;;;;;;12.16;75.30;100626.09;5038131;28;20036;-83
2023/03/22 09:05:18;;;;;;;11.10;2.90;;;;;;;12.20;75.28;100625.22;5038183;28;20052;-82
2023/03/22 09:07:44;;;;;;;10.50;2.88;;;;;;;12.20;74.79;100628.75;5055599;28;20486;-84
2023/03/22 09:10:10;;;;;;;8.63;2.63;;;;;;;12.15;75.69;100611.97;5055994;28;20032;-81
2023/03/22 09:12:36;;;;;;;9.77;2.80;;;;;;;12.22;75.24;100611.13;5064712;28;20040;-83
2023/03/22 09:15:01;;;;;;;12.18;2.92;;;;;;;12.20;74.27;100599.63;5041268;28;20116;-82
2023/03/22 09:17:26;;;;;;;9.63;3.10;;;;;;;12.37;74.61;100625.22;5066753;28;20021;-82
2023/03/22 09:19:52;;;;;;;7.35;2.50;;;;;;;12.25;73.78;100574.03;5055422;28;20520;-83
2023/03/22 09:22:17;;;;;;;9.90;2.70;;;;;;;12.53;73.43;100622.56;5049309;28;20032;-83
2023/03/22 09:24:43;;;;;;;8.50;2.67;;;;;;;12.59;72.88;100595.19;5057678;28;20082;-82
2023/03/22 09:27:08;;;;;;;13.45;2.58;;;;;;;12.75;72.41;100606.63;5075389;28;20020;-83
2023/03/22 09:29:33;;;;;;;8.02;2.80;;;;;;;12.78;71.50;100619.91;5057678;28;20024;-84
2023/03/22 09:31:59;;;;;;;8.77;2.92;;;;;;;12.83;71.39;100622.53;5037883;28;20024;-84
2023/03/22 09:34:24;;;;;;;12.85;2.97;;;;;;;12.83;72.17;100609.28;5037613;28;20476;-83
2023/03/22 09:36:51;;;;;;;9.40;3.00;;;;;;;12.83;71.48;100611.94;5055533;28;20036;-84
2023/03/22 09:39:17;;;;;;;10.38;3.00;;;;;;;12.65;70.94;100591.66;5036588;28;20085;-83
2023/03/22 09:41:51;;;;;;;8.07;2.47;;;;;;;12.74;71.48;100599.59;5037667;28;20104;-82
2023/03/22 09:44:28;;;;;;;12.00;3.13;;;;;;;12.59;72.03;100578.38;5055143;28;20031;-86
2023/03/22 09:46:58;;;;;;;7.85;2.50;;;;;;;12.76;71.72;100611.97;5055051;28;20484;-85
2023/03/22 09:49:32;;;;;;;9.27;2.50;;;;;;;12.70;71.92;100603.13;5055229;28;20114;-85
2023/03/22 09:51:58;;;;;;;13.57;3.10;;;;;;;12.58;71.47;100619.03;5036747;28;20059;-82
2023/03/22 09:54:36;;;;;;;8.40;2.80;;;;;;;12.51;70.47;100587.25;5055239;28;20390;-85
2023/03/22 09:57:07;;;;;;;8.95;2.58;;;;;;;12.53;71.06;100605.78;5054995;28;20032;-84
2023/03/22 10:00:09;;;;;;;7.78;2.42;;;;;;;12.52;71.42;100614.63;5037042;28;20021;-83
2023/03/22 10:02:44;;;;;;;6.90;2.30;;;;;;;12.53;71.64;100611.09;5051009;28;20036;-84
2023/03/22 10:05:43;;;;;;;9.23;2.42;;;;;;;12.57;71.64;100612.88;5036888;28;20068;-84
2023/03/22 10:08:26;;;;;;;9.32;2.30;;;;;;;12.56;71.83;100595.19;5055862;28;20166;-86
2023/03/22 10:10:52;;;;;;;11.18;2.55;;;;;;;12.38;71.64;100590.81;5054426;28;20028;-87
2023/03/22 10:13:28;;;;;;;6.25;2.20;;;;;;;12.26;71.97;100574.91;5020281;28;20052;-86
2023/03/22 10:16:01;;;;;;;8.27;2.58;;;;;;;12.27;72.06;100596.09;5036701;28;20096;-85
2023/03/22 10:18:42;;;;;;;7.65;2.30;;;;;;;12.25;72.34;100594.34;5036389;28;20178;-84
2023/03/22 10:21:10;;;;;;;6.63;2.20;;;;;;;12.24;71.53;100595.22;5054406;28;20036;-81
2023/03/22 10:23:46;;;;;;;8.93;2.50;;;;;;;12.25;72.95;100629.66;5036726;28;20022;-82
2023/03/22 10:26:28;;;;;;;8.30;2.25;;;;;;;12.14;73.64;100614.66;5054676;28;20117;-82
2023/03/22 10:29:26;;;;;;;11.77;2.67;;;;;;;12.21;74.00;100619.06;5036770;28;20036;-80
2023/03/22 10:31:53;;;;;;;9.98;2.50;;;;;;;12.10;74.17;100626.13;4984374;28;20267;-81
2023/03/22 10:34:21;;;;;;;9.52;2.65;;;;;;;11.76;74.25;100581.03;5054138;28;20124;-81
2023/03/22 10:36:50;;;;;;;11.45;2.30;;;;;;;11.95;76.63;100625.22;5054317;28;20059;-82
2023/03/22 10:39:21;;;;;;;7.20;2.50;;;;;;;11.93;78.48;100640.22;5054311;28;20029;-80
2023/03/22 10:41:49;;;;;;;6.53;2.42;;;;;;;11.82;79.88;100627.78;5054317;28;20043;-81
2023/03/22 10:44:18;;;;;;;12.48;3.03;;;;;;;11.78;81.40;100625.16;5054481;28;20025;-82
2023/03/22 10:46:44;;;;;;;9.32;2.58;;;;;;;11.70;81.46;100636.59;5054402;28;20459;-86
2023/03/22 10:49:22;;;;;;;7.07;2.50;;;;;;;11.51;82.91;100610.06;5035928;28;20044;-86
2023/03/22 10:51:50;;;;;;;9.48;2.75;;;;;;;11.62;83.74;100614.53;5052383;28;20048;-87
2023/03/22 10:54:20;;;;;;;9.13;2.90;;;;;;;11.46;85.19;100613.59;5034656;28;20486;-87
2023/03/22 10:56:45;;;;;;;9.45;2.65;;;;;;;11.46;85.25;100609.16;5052005;28;20039;-86
2023/03/22 10:59:46;;;;;;;9.05;2.63;;;;;;;11.56;84.88;100625.94;5001341;28;20024;-88
2023/03/22 11:02:27;;;;;;;8.60;2.75;;;;;;;11.43;86.46;100614.44;5033952;28;20405;-88
2023/03/22 11:05:05;;;;;;;8.85;2.70;;;;;;;11.40;87.29;100606.53;5035211;28;20029;-87
2023/03/22 11:07:39;;;;;;;9.18;2.60;;;;;;;11.52;87.44;100627.72;5035678;28;20515;-87
2023/03/22 11:10:07;;;;;;;8.70;2.72;;;;;;;11.45;89.25;100633.00;5021246;28;20055;-89
2023/03/22 11:12:35;;;;;;;6.75;2.70;;;;;;;11.22;88.55;100593.19;5055712;28;20076;-87
2023/03/22 11:15:01;;;;;;;10.57;3.05;;;;;;;11.27;89.59;100613.53;5053788;28;20032;-87
2023/03/22 11:17:30;;;;;;;6.70;2.58;;;;;;;11.32;90.27;100628.53;5059832;28;20461;-87
2023/03/22 11:20:05;;;;;;;9.07;3.00;;;;;;;11.29;91.00;100638.22;5036158;28;20373;-86
2023/03/22 11:22:42;;;;;;;9.65;2.90;;;;;;;11.16;91.47;100602.00;5035497;28;20028;-87
2023/03/22 11:25:26;;;;;;;11.10;3.00;;;;;;;11.14;90.54;100601.13;5053627;28;20033;-87
2023/03/22 11:28:22;;;;;;;8.20;2.85;;;;;;;11.28;90.80;100617.06;5053198;28;20035;-87
2023/03/22 11:30:59;;;;;;;10.80;3.17;;;;;;;11.31;92.49;100621.47;5053644;28;20051;-86
2023/03/22 11:33:25;;;;;;;10.43;2.85;;;;;;;11.34;91.02;100622.34;5054720;28;20032;-87
2023/03/22 11:35:59;;;;;;;7.07;2.80;;;;;;;11.26;90.54;100594.97;5035465;28;20453;-87